Time;durP1;ratioP1;P1;durP2;ratioP2;P2;SDS_P1;SDS_P2;PMS_P1;PMS_P2;Temp;Humidity;BMP_temperature;BMP_pressure;BME280_temperature;BME280_humidity;BME280_pressure;Samples;Min_cycle;Max_cycle;Signal;HPM_P1;HPM_P2
2021/05/15 00:00:45;;;;;;;10.57;9.90;;;9.50;99.90;;;;;;5012652;28;20524;-67
2021/05/15 00:03:11;;;;;;;10.80;10.20;;;9.50;99.90;;;;;;5012441;28;20852;-68
2021/05/15 00:05:37;;;;;;;10.90;10.20;;;9.40;99.90;;;;;;5012321;28;20474;-68
2021/05/15 00:08:04;;;;;;;12.00;11.30;;;9.40;99.90;;;;;;5012405;28;20446;-67
2021/05/15 00:10:32;;;;;;;12.13;11.13;;;9.30;99.90;;;;;;5012247;28;20470;-67
2021/05/15 00:12:59;;;;;;;10.90;10.10;;;9.30;99.90;;;;;;5012429;28;20523;-68
2021/05/15 00:15:26;;;;;;;13.00;11.70;;;9.20;99.90;;;;;;5012100;28;20449;-67
2021/05/15 00:17:52;;;;;;;12.40;11.50;;;9.20;99.90;;;;;;5012267;28;20446;-66
2021/05/15 00:20:19;;;;;;;12.30;11.60;;;9.20;99.90;;;;;;5012126;28;21019;-67
2021/05/15 00:22:45;;;;;;;12.30;11.40;;;9.10;99.90;;;;;;5012212;28;20929;-67
2021/05/15 00:25:14;;;;;;;11.97;11.10;;;9.10;99.90;;;;;;5011800;28;20482;-67
2021/05/15 00:27:40;;;;;;;11.80;11.00;;;9.10;99.90;;;;;;5012142;28;20448;-67
2021/05/15 00:30:10;;;;;;;12.43;11.40;;;9.10;99.90;;;;;;5012005;28;20540;-66
2021/05/15 00:32:36;;;;;;;11.70;10.90;;;9.10;99.90;;;;;;5012059;28;20449;-68
2021/05/15 00:35:03;;;;;;;11.80;11.00;;;9.10;99.90;;;;;;5012142;28;20492;-67
2021/05/15 00:37:29;;;;;;;12.13;11.07;;;9.10;99.90;;;;;;5011694;28;20453;-67
2021/05/15 00:39:55;;;;;;;12.97;11.87;;;9.10;99.90;;;;;;5011979;28;20469;-67
2021/05/15 00:42:21;;;;;;;11.20;10.40;;;9.00;99.90;;;;;;5011909;28;20454;-67
2021/05/15 00:44:48;;;;;;;12.33;11.23;;;9.00;99.90;;;;;;5011908;28;20489;-67
2021/05/15 00:47:16;;;;;;;12.00;11.00;;;9.00;99.90;;;;;;5011636;28;20872;-68
2021/05/15 00:49:43;;;;;;;11.57;10.70;;;9.00;99.90;;;;;;5011798;28;20478;-67
2021/05/15 00:52:10;;;;;;;13.13;12.00;;;9.10;99.90;;;;;;5011889;28;20454;-67
2021/05/15 00:54:37;;;;;;;12.13;11.03;;;9.10;99.90;;;;;;5011788;28;20474;-68
2021/05/15 00:57:04;;;;;;;12.03;11.23;;;9.10;99.90;;;;;;5011886;28;20456;-66
2021/05/15 00:59:31;;;;;;;11.93;10.93;;;9.20;99.90;;;;;;5011524;28;20473;-67
2021/05/15 01:01:57;;;;;;;12.90;11.80;;;9.20;99.90;;;;;;5011698;28;20442;-68
2021/05/15 01:04:25;;;;;;;11.57;10.70;;;9.20;99.90;;;;;;5011543;28;20500;-67
2021/05/15 01:06:51;;;;;;;11.87;11.07;;;9.30;99.90;;;;;;5011554;28;20508;-67
2021/05/15 01:09:18;;;;;;;13.53;12.43;;;9.40;99.90;;;;;;5011639;28;20465;-68
2021/05/15 01:11:44;;;;;;;12.23;11.13;;;9.50;99.90;;;;;;5011756;28;20819;-67
2021/05/15 01:14:11;;;;;;;14.10;12.80;;;9.60;99.90;;;;;;5011581;28;20445;-66
2021/05/15 01:16:37;;;;;;;12.30;11.20;;;9.60;99.90;;;;;;5011550;28;20501;-67
2021/05/15 01:19:05;;;;;;;13.07;12.00;;;9.60;99.90;;;;;;5011471;28;20524;-67
2021/05/15 01:21:32;;;;;;;12.50;11.67;;;9.70;99.90;;;;;;5011591;28;20449;-65
2021/05/15 01:23:58;;;;;;;11.90;10.80;;;9.80;99.90;;;;;;5011538;28;20482;-67
2021/05/15 01:26:27;;;;;;;11.47;10.37;;;9.80;99.90;;;;;;5011248;28;20445;-68
2021/05/15 01:28:57;;;;;;;11.00;10.20;;;9.90;99.90;;;;;;5011519;28;20476;-66
2021/05/15 01:31:24;;;;;;;10.27;9.50;;;9.90;99.90;;;;;;5011487;28;20448;-67
2021/05/15 01:33:51;;;;;;;10.97;10.07;;;10.10;99.90;;;;;;5011373;28;20448;-68
2021/05/15 01:36:18;;;;;;;11.30;10.20;;;10.10;99.90;;;;;;5011316;28;20794;-68
2021/05/15 01:38:45;;;;;;;10.33;9.63;;;10.10;99.90;;;;;;5011331;28;20453;-67
2021/05/15 01:41:14;;;;;;;13.73;11.67;;;10.30;99.90;;;;;;5011536;28;20450;-68
2021/05/15 01:43:41;;;;;;;10.60;9.70;;;10.30;99.90;;;;;;5011225;28;20441;-67
2021/05/15 01:46:08;;;;;;;11.77;10.57;;;10.40;99.90;;;;;;5011352;28;20488;-68
2021/05/15 01:48:35;;;;;;;11.00;10.10;;;10.40;99.90;;;;;;5011869;28;20523;-67
2021/05/15 01:51:04;;;;;;;11.67;10.77;;;10.50;99.90;;;;;;5014900;28;20854;-68
2021/05/15 01:53:32;;;;;;;12.57;11.67;;;10.60;99.90;;;;;;5014853;28;21240;-67
2021/05/15 01:56:00;;;;;;;11.83;10.93;;;10.60;99.90;;;;;;5014776;28;20545;-68
2021/05/15 01:58:27;;;;;;;12.77;11.67;;;10.60;99.90;;;;;;5014844;28;20973;-68
2021/05/15 02:00:54;;;;;;;12.27;11.27;;;10.70;99.90;;;;;;5014737;28;21067;-67
2021/05/15 02:03:21;;;;;;;11.57;10.67;;;10.70;99.90;;;;;;5014855;28;20564;-67
2021/05/15 02:05:48;;;;;;;12.93;11.93;;;10.80;99.90;;;;;;5014373;28;20543;-67
2021/05/15 02:08:14;;;;;;;12.63;11.73;;;10.80;99.90;;;;;;5014770;28;20508;-67
2021/05/15 02:10:40;;;;;;;12.60;11.50;;;10.80;99.90;;;;;;5014593;28;21019;-67
2021/05/15 02:13:07;;;;;;;12.70;11.57;;;10.70;99.90;;;;;;5014661;28;20438;-68
2021/05/15 02:15:33;;;;;;;11.13;10.30;;;10.80;99.90;;;;;;5014478;28;20445;-66
2021/05/15 02:18:00;;;;;;;13.10;12.00;;;10.80;99.90;;;;;;5014626;28;20453;-67
2021/05/15 02:20:27;;;;;;;12.27;11.47;;;10.90;99.90;;;;;;5014597;28;20462;-67
2021/05/15 02:22:53;;;;;;;10.80;10.10;;;10.80;99.90;;;;;;5014526;28;20775;-67
2021/05/15 02:25:19;;;;;;;11.73;10.77;;;10.90;99.90;;;;;;5014324;28;20624;-67
2021/05/15 02:27:46;;;;;;;12.33;10.43;;;10.90;99.90;;;;;;5014461;28;20488;-66
2021/05/15 02:30:14;;;;;;;11.30;10.30;;;10.90;99.90;;;;;;5014246;28;20489;-66
2021/05/15 02:32:40;;;;;;;12.30;11.20;;;10.80;99.90;;;;;;5014216;28;20453;-66
2021/05/15 02:35:07;;;;;;;13.33;12.33;;;10.80;99.90;;;;;;5014065;28;20453;-67
2021/05/15 02:37:33;;;;;;;12.07;11.10;;;10.80;99.90;;;;;;5013862;28;20442;-68
2021/05/15 02:40:00;;;;;;;11.40;10.53;;;10.80;99.90;;;;;;5014019;28;20885;-68
2021/05/15 02:42:26;;;;;;;11.20;10.13;;;10.90;99.90;;;;;;5014030;28;20453;-68
2021/05/15 02:44:52;;;;;;;12.53;11.53;;;10.80;99.90;;;;;;5013808;28;20531;-68
2021/05/15 02:47:19;;;;;;;12.10;11.00;;;10.80;99.90;;;;;;5013717;28;20525;-68
2021/05/15 02:49:46;;;;;;;11.40;10.53;;;10.90;99.90;;;;;;5013483;28;20474;-67
2021/05/15 02:52:12;;;;;;;11.50;10.70;;;10.80;99.90;;;;;;5013671;28;20450;-67
2021/05/15 02:54:38;;;;;;;12.43;11.63;;;10.80;99.90;;;;;;5013684;28;20500;-67
2021/05/15 02:57:05;;;;;;;11.63;10.83;;;10.80;99.90;;;;;;5013555;28;20802;-68
2021/05/15 02:59:31;;;;;;;10.60;9.90;;;10.80;99.90;;;;;;5013415;28;20466;-67
2021/05/15 03:01:58;;;;;;;11.20;10.30;;;10.80;99.90;;;;;;5013638;28;20449;-67
2021/05/15 03:04:25;;;;;;;10.53;9.87;;;10.80;99.90;;;;;;5013582;28;20544;-67
2021/05/15 03:06:51;;;;;;;10.70;9.93;;;10.80;99.90;;;;;;5013334;28;20449;-68
2021/05/15 03:09:17;;;;;;;12.80;11.73;;;10.90;99.90;;;;;;5013584;28;20466;-68
2021/05/15 03:11:43;;;;;;;11.33;10.63;;;10.80;99.90;;;;;;5013349;28;20455;-68
2021/05/15 03:14:10;;;;;;;10.80;10.20;;;10.80;99.90;;;;;;5013481;28;20511;-67
2021/05/15 03:16:36;;;;;;;11.37;10.67;;;10.90;99.90;;;;;;5013040;28;20450;-66
2021/05/15 03:19:04;;;;;;;11.90;11.07;;;10.90;99.90;;;;;;5013212;28;20481;-67
2021/05/15 03:21:33;;;;;;;10.67;9.83;;;10.90;99.90;;;;;;5012988;28;20445;-67
2021/05/15 03:24:00;;;;;;;12.00;11.20;;;11.00;99.90;;;;;;5013196;28;20473;-68
2021/05/15 03:26:26;;;;;;;11.43;10.63;;;11.00;99.90;;;;;;5012955;28;20438;-68
2021/05/15 03:28:52;;;;;;;11.10;10.20;;;11.00;99.90;;;;;;5013053;28;20446;-68
2021/05/15 03:31:19;;;;;;;9.50;9.00;;;11.00;99.90;;;;;;5013293;28;20450;-68
2021/05/15 03:33:45;;;;;;;10.60;10.00;;;11.10;99.90;;;;;;5012993;28;20449;-67
2021/05/15 03:36:11;;;;;;;11.23;10.67;;;11.10;99.90;;;;;;5012831;28;20517;-67
2021/05/15 03:38:38;;;;;;;10.60;10.07;;;11.10;99.90;;;;;;5012996;28;20441;-68
2021/05/15 03:41:04;;;;;;;11.13;10.53;;;11.10;99.90;;;;;;5013082;28;20802;-68
2021/05/15 03:43:30;;;;;;;11.10;10.60;;;11.00;99.90;;;;;;5012834;28;20438;-67
2021/05/15 03:45:58;;;;;;;11.07;10.57;;;11.10;99.90;;;;;;5012691;28;20484;-67
2021/05/15 03:48:24;;;;;;;10.57;10.10;;;11.00;99.90;;;;;;5012889;28;20992;-67
2021/05/15 03:50:51;;;;;;;10.00;9.30;;;11.10;99.90;;;;;;5012628;28;20484;-68
2021/05/15 03:53:19;;;;;;;10.40;9.90;;;11.10;99.90;;;;;;5012794;28;20442;-66
2021/05/15 03:55:47;;;;;;;10.40;9.90;;;11.20;99.90;;;;;;5012527;28;20438;-67
2021/05/15 03:58:14;;;;;;;10.27;9.67;;;11.20;99.90;;;;;;5012993;28;20452;-68
2021/05/15 04:00:40;;;;;;;10.10;9.40;;;11.30;99.90;;;;;;5012601;28;20478;-67
2021/05/15 04:03:07;;;;;;;9.60;9.20;;;11.30;99.90;;;;;;5012914;28;20442;-68
2021/05/15 04:05:33;;;;;;;9.97;9.57;;;11.30;99.90;;;;;;5012358;28;20508;-67
2021/05/15 04:07:59;;;;;;;10.17;9.67;;;11.30;99.90;;;;;;5012746;28;20446;-67
2021/05/15 04:10:26;;;;;;;11.03;10.33;;;11.30;99.90;;;;;;5012533;28;20473;-67
2021/05/15 04:13:02;;;;;;;10.57;10.17;;;11.30;99.90;;;;;;5011906;28;20543;-67
2021/05/15 04:15:37;;;;;;;10.40;10.00;;;11.40;99.90;;;;;;5012206;28;20481;-67
2021/05/15 04:18:05;;;;;;;10.60;10.10;;;11.40;99.90;;;;;;5012455;28;20489;-68
2021/05/15 04:20:32;;;;;;;10.70;10.20;;;11.40;99.90;;;;;;5012072;28;20473;-67
2021/05/15 04:22:58;;;;;;;10.77;10.27;;;11.50;99.90;;;;;;5012198;28;20442;-66
2021/05/15 04:25:25;;;;;;;10.00;9.70;;;11.50;99.90;;;;;;5012071;28;20481;-66
2021/05/15 04:27:51;;;;;;;10.87;10.23;;;11.50;99.90;;;;;;5011945;28;20442;-66
2021/05/15 04:30:18;;;;;;;11.23;10.83;;;11.50;99.90;;;;;;5012159;28;20466;-67
2021/05/15 04:32:44;;;;;;;15.10;13.20;;;11.50;99.90;;;;;;5011945;28;20846;-68
2021/05/15 04:35:11;;;;;;;11.43;10.97;;;11.60;99.90;;;;;;5012160;28;20438;-67
2021/05/15 04:37:37;;;;;;;11.73;11.33;;;11.60;99.90;;;;;;5011992;28;20473;-66
2021/05/15 04:40:05;;;;;;;11.90;11.40;;;11.70;99.90;;;;;;5011831;28;20469;-67
2021/05/15 04:42:32;;;;;;;10.97;10.50;;;11.80;99.90;;;;;;5011380;28;20452;-67
2021/05/15 04:44:59;;;;;;;10.30;9.80;;;11.80;99.90;;;;;;5011969;28;20489;-66
2021/05/15 04:47:26;;;;;;;11.60;11.10;;;11.80;99.90;;;;;;5011971;28;20481;-66
2021/05/15 04:49:53;;;;;;;11.60;11.03;;;11.80;99.90;;;;;;5011824;28;20478;-66
2021/05/15 04:52:19;;;;;;;11.63;11.13;;;11.80;99.90;;;;;;5011996;28;20450;-66
2021/05/15 04:54:45;;;;;;;11.67;11.17;;;11.80;99.90;;;;;;5011881;28;20847;-66
2021/05/15 04:57:12;;;;;;;11.80;11.13;;;11.80;99.90;;;;;;5011310;28;20504;-66
2021/05/15 04:59:38;;;;;;;11.23;10.73;;;11.80;99.90;;;;;;5011554;28;20527;-66
2021/05/15 05:02:05;;;;;;;12.70;11.80;;;11.90;99.90;;;;;;5011549;28;20438;-66
2021/05/15 05:04:32;;;;;;;11.60;11.10;;;11.90;99.90;;;;;;5012011;28;20508;-68
2021/05/15 05:06:58;;;;;;;12.90;12.10;;;11.90;99.90;;;;;;5011567;28;20442;-68
2021/05/15 05:09:24;;;;;;;11.23;10.83;;;11.90;99.90;;;;;;5011499;28;20461;-68
2021/05/15 05:11:50;;;;;;;12.50;11.90;;;12.00;99.90;;;;;;5010547;28;20449;-69
2021/05/15 05:14:16;;;;;;;12.50;11.90;;;12.00;99.90;;;;;;5011670;28;20450;-68
2021/05/15 05:16:42;;;;;;;12.73;12.13;;;12.00;99.90;;;;;;5011219;28;20445;-68
2021/05/15 05:19:12;;;;;;;13.83;13.13;;;12.10;99.90;;;;;;5011334;28;20465;-69
2021/05/15 05:21:39;;;;;;;12.20;11.70;;;12.10;99.90;;;;;;5011450;28;21008;-69
2021/05/15 05:24:06;;;;;;;12.97;12.47;;;12.10;99.90;;;;;;5012596;28;20437;-69
2021/05/15 05:26:36;;;;;;;14.77;14.07;;;12.10;99.90;;;;;;5015110;28;20500;-68
2021/05/15 05:29:07;;;;;;;12.80;12.20;;;12.10;99.90;;;;;;5015349;28;20913;-68
2021/05/15 05:31:33;;;;;;;12.80;12.10;;;12.10;99.90;;;;;;5015156;28;20445;-67
2021/05/15 05:33:59;;;;;;;14.00;13.40;;;12.20;99.90;;;;;;5015162;28;20441;-68
2021/05/15 05:36:25;;;;;;;13.97;13.27;;;12.20;99.90;;;;;;5015053;28;20508;-68
2021/05/15 05:38:53;;;;;;;13.50;12.90;;;12.20;99.90;;;;;;5014847;28;20516;-67
2021/05/15 05:41:20;;;;;;;14.37;13.57;;;12.20;99.90;;;;;;5015025;28;20441;-69
2021/05/15 05:43:47;;;;;;;14.97;14.27;;;12.20;99.90;;;;;;5015028;28;20446;-68
2021/05/15 05:46:13;;;;;;;14.03;13.43;;;12.30;99.90;;;;;;5014677;28;20481;-69
2021/05/15 05:48:39;;;;;;;14.10;13.50;;;12.30;99.90;;;;;;5014719;28;20446;-68
2021/05/15 05:51:05;;;;;;;14.27;13.63;;;12.30;99.90;;;;;;5015015;28;20441;-68
2021/05/15 05:53:32;;;;;;;13.93;13.33;;;12.30;99.90;;;;;;5014666;28;20437;-68
2021/05/15 05:55:59;;;;;;;15.13;14.13;;;12.50;99.90;;;;;;5014544;28;20438;-68
2021/05/15 05:58:25;;;;;;;13.73;13.13;;;12.40;99.90;;;;;;5014763;28;20438;-68
2021/05/15 06:00:51;;;;;;;14.63;14.00;;;12.50;99.90;;;;;;5014553;28;20519;-68
2021/05/15 06:03:18;;;;;;;14.90;14.20;;;12.40;99.90;;;;;;5014518;28;20964;-68
2021/05/15 06:05:44;;;;;;;14.33;13.73;;;12.40;99.90;;;;;;5014290;28;20481;-66
2021/05/15 06:08:11;;;;;;;14.27;13.50;;;12.50;99.90;;;;;;5014444;28;20450;-67
2021/05/15 06:10:38;;;;;;;14.03;13.33;;;12.50;99.90;;;;;;5014717;28;20470;-65
2021/05/15 06:13:06;;;;;;;14.03;13.43;;;12.50;99.90;;;;;;5014815;28;20445;-67
2021/05/15 06:15:33;;;;;;;15.47;14.60;;;12.60;99.90;;;;;;5014265;28;20480;-67
2021/05/15 06:17:59;;;;;;;15.83;14.83;;;12.70;99.90;;;;;;5014110;28;20446;-67
2021/05/15 06:20:26;;;;;;;16.67;15.47;;;12.80;99.90;;;;;;5014433;28;20461;-67
2021/05/15 06:22:52;;;;;;;15.77;14.97;;;12.80;99.90;;;;;;5014180;28;20457;-67
2021/05/15 06:25:18;;;;;;;16.77;15.57;;;12.80;99.90;;;;;;5014181;28;20477;-67
2021/05/15 06:27:44;;;;;;;17.67;16.77;;;12.90;99.90;;;;;;5013928;28;20450;-66
2021/05/15 06:30:13;;;;;;;17.20;16.30;;;13.00;99.90;;;;;;5013943;28;20466;-67
2021/05/15 06:32:39;;;;;;;16.50;15.80;;;13.10;99.90;;;;;;5013984;28;20446;-67
2021/05/15 06:35:07;;;;;;;15.83;15.13;;;13.00;99.90;;;;;;5013466;28;20868;-67
2021/05/15 06:37:33;;;;;;;17.57;16.47;;;13.10;99.90;;;;;;5013779;28;20446;-66
2021/05/15 06:39:59;;;;;;;16.00;15.17;;;13.10;99.90;;;;;;5013888;28;20528;-66
2021/05/15 06:42:25;;;;;;;16.80;15.60;;;13.10;99.90;;;;;;5013726;28;20457;-66
2021/05/15 06:44:51;;;;;;;16.73;15.93;;;13.10;99.90;;;;;;5013674;28;21023;-67
2021/05/15 06:47:18;;;;;;;15.97;15.23;;;13.20;99.90;;;;;;5013688;28;20446;-66
2021/05/15 06:49:45;;;;;;;17.17;16.17;;;13.20;99.90;;;;;;5013453;28;20485;-67
2021/05/15 06:52:11;;;;;;;16.60;15.90;;;13.20;99.90;;;;;;5013584;28;20445;-66
2021/05/15 06:54:38;;;;;;;16.27;15.50;;;13.10;99.90;;;;;;5013656;28;20783;-67
2021/05/15 06:57:06;;;;;;;17.93;16.83;;;13.30;99.90;;;;;;5013262;28;20450;-66
2021/05/15 06:59:32;;;;;;;16.70;15.83;;;13.50;99.90;;;;;;5013448;28;20837;-67
2021/05/15 07:01:58;;;;;;;15.97;15.30;;;13.70;99.90;;;;;;5013487;28;20445;-67
2021/05/15 07:04:25;;;;;;;16.33;15.60;;;13.90;99.90;;;;;;5013319;28;20489;-67
2021/05/15 07:06:52;;;;;;;15.60;14.80;;;14.10;99.90;;;;;;5013156;28;20438;-66
2021/05/15 07:09:18;;;;;;;16.80;16.00;;;14.00;99.90;;;;;;5013199;28;20976;-66
2021/05/15 07:11:44;;;;;;;17.00;16.30;;;14.10;99.90;;;;;;5013527;28;20450;-66
2021/05/15 07:14:10;;;;;;;18.30;17.10;;;14.10;99.90;;;;;;5013677;28;20450;-65
2021/05/15 07:16:36;;;;;;;17.40;16.50;;;14.20;99.90;;;;;;5013391;28;20457;-66
2021/05/15 07:19:03;;;;;;;17.90;17.00;;;14.10;99.90;;;;;;5013511;28;20462;-67
2021/05/15 07:21:30;;;;;;;17.63;16.73;;;14.00;99.90;;;;;;5013575;28;20457;-66
2021/05/15 07:23:56;;;;;;;17.93;17.03;;;13.80;99.90;;;;;;5013518;28;20814;-65
2021/05/15 07:26:23;;;;;;;17.07;16.27;;;13.70;99.90;;;;;;5013418;28;20477;-66
2021/05/15 07:28:49;;;;;;;17.40;16.60;;;13.90;99.90;;;;;;5013019;28;20548;-65
2021/05/15 07:31:15;;;;;;;18.40;17.27;;;14.00;99.90;;;;;;5013320;28;20454;-65
2021/05/15 07:33:42;;;;;;;16.87;16.10;;;14.10;99.90;;;;;;5013121;28;20446;-67
2021/05/15 07:36:08;;;;;;;18.33;17.37;;;14.00;99.90;;;;;;5013140;28;20444;-67
2021/05/15 07:38:36;;;;;;;18.53;17.53;;;14.10;99.90;;;;;;5013071;28;20661;-67
2021/05/15 07:41:04;;;;;;;19.00;18.00;;;14.20;99.90;;;;;;5012817;28;21168;-67
2021/05/15 07:43:30;;;;;;;18.47;17.53;;;14.40;99.90;;;;;;5012994;28;20856;-66
2021/05/15 07:45:58;;;;;;;17.00;16.20;;;14.80;99.90;;;;;;5012072;28;20478;-67
2021/05/15 07:48:29;;;;;;;18.07;17.17;;;14.90;99.90;;;;;;5012732;28;21073;-67
2021/05/15 07:50:57;;;;;;;19.13;18.03;;;14.80;99.90;;;;;;5012605;28;21007;-68
2021/05/15 07:53:23;;;;;;;18.77;17.80;;;14.90;99.90;;;;;;5012730;28;20457;-65
2021/05/15 07:55:52;;;;;;;19.53;18.33;;;15.20;99.90;;;;;;5012638;28;20450;-66
2021/05/15 07:58:18;;;;;;;19.57;18.60;;;15.40;99.90;;;;;;5012669;28;20450;-66
2021/05/15 08:00:45;;;;;;;18.80;17.90;;;15.60;99.90;;;;;;5012455;28;20470;-68
2021/05/15 08:03:11;;;;;;;18.63;17.73;;;15.90;99.90;;;;;;5012577;28;20456;-70
2021/05/15 08:05:37;;;;;;;19.13;18.23;;;16.30;99.90;;;;;;5012722;28;21018;-68
2021/05/15 08:08:04;;;;;;;20.13;19.13;;;16.60;99.90;;;;;;5012253;28;20487;-66
2021/05/15 08:10:32;;;;;;;18.93;17.97;;;16.60;99.90;;;;;;5012412;28;20472;-66
2021/05/15 08:13:00;;;;;;;21.40;20.20;;;16.30;99.90;;;;;;5012501;28;20449;-67
2021/05/15 08:15:27;;;;;;;18.97;17.90;;;16.10;99.90;;;;;;5012509;28;20438;-67
2021/05/15 08:17:55;;;;;;;20.03;19.03;;;16.30;99.90;;;;;;5012233;28;20521;-67
2021/05/15 08:20:22;;;;;;;21.17;20.00;;;16.60;99.90;;;;;;5012393;28;20470;-67
2021/05/15 08:22:48;;;;;;;20.00;19.10;;;16.80;99.90;;;;;;5012251;28;20438;-67
2021/05/15 08:25:16;;;;;;;21.13;19.90;;;16.90;99.90;;;;;;5012366;28;20538;-66
2021/05/15 08:27:43;;;;;;;21.07;19.97;;;17.00;99.90;;;;;;5012449;28;20450;-68
2021/05/15 08:30:14;;;;;;;19.57;18.53;;;17.00;99.00;;;;;;5012206;28;21004;-66
2021/05/15 08:32:40;;;;;;;20.33;19.40;;;17.20;98.40;;;;;;5012679;28;20449;-66
2021/05/15 08:35:08;;;;;;;21.37;20.27;;;17.10;97.10;;;;;;5012046;28;20434;-65
2021/05/15 08:37:34;;;;;;;19.50;18.60;;;17.10;97.00;;;;;;5011917;28;20442;-65
2021/05/15 08:40:01;;;;;;;19.37;18.43;;;17.20;96.90;;;;;;5011845;28;20473;-65
2021/05/15 08:42:29;;;;;;;19.90;19.00;;;17.40;96.10;;;;;;5011868;28;20816;-66
2021/05/15 08:44:57;;;;;;;20.40;19.50;;;17.70;94.80;;;;;;5011666;28;21015;-65
2021/05/15 08:47:25;;;;;;;20.77;19.67;;;17.70;93.60;;;;;;5011792;28;20454;-65
2021/05/15 08:49:52;;;;;;;20.47;19.43;;;18.20;93.60;;;;;;5011587;28;20478;-66
2021/05/15 08:52:20;;;;;;;20.27;19.27;;;18.20;92.80;;;;;;5012062;28;20453;-66
2021/05/15 08:54:46;;;;;;;20.30;19.30;;;18.10;90.90;;;;;;5011744;28;20961;-66
2021/05/15 08:57:13;;;;;;;20.20;19.30;;;17.90;90.80;;;;;;5011685;28;20958;-64
2021/05/15 08:59:39;;;;;;;18.63;17.73;;;18.10;90.70;;;;;;5018272;28;20466;-65
2021/05/15 09:02:05;;;;;;;19.40;18.40;;;18.30;90.80;;;;;;5018379;28;20461;-65
2021/05/15 09:04:32;;;;;;;18.40;17.60;;;18.40;87.30;;;;;;5018265;28;20830;-66
2021/05/15 09:06:59;;;;;;;19.43;18.53;;;18.50;82.20;;;;;;5018178;28;20933;-63
2021/05/15 09:09:25;;;;;;;18.40;17.60;;;18.80;80.50;;;;;;5018254;28;20465;-63
2021/05/15 09:11:52;;;;;;;18.73;17.87;;;19.20;78.10;;;;;;5018260;28;20789;-64
2021/05/15 09:14:19;;;;;;;16.60;15.90;;;19.30;75.70;;;;;;5018240;28;20446;-63
2021/05/15 09:16:48;;;;;;;17.20;16.50;;;19.50;72.70;;;;;;5017897;28;20449;-63
2021/05/15 09:19:18;;;;;;;16.53;15.93;;;19.40;71.80;;;;;;5017915;28;20466;-63
2021/05/15 09:21:58;;;;;;;17.40;16.70;;;19.40;68.70;;;;;;5018570;28;20449;-63
2021/05/15 09:24:33;;;;;;;15.93;15.33;;;19.30;68.50;;;;;;5018426;28;20461;-63
2021/05/15 09:27:02;;;;;;;16.20;15.60;;;19.30;66.60;;;;;;5017987;28;20456;-63
2021/05/15 09:29:39;;;;;;;16.83;16.07;;;19.50;64.00;;;;;;5018110;28;20547;-64
2021/05/15 09:32:06;;;;;;;17.30;16.60;;;19.90;64.50;;;;;;5018071;28;20445;-64
2021/05/15 09:34:43;;;;;;;16.50;15.90;;;19.70;63.80;;;;;;5017781;28;20446;-63
2021/05/15 09:37:10;;;;;;;17.00;16.33;;;19.60;62.30;;;;;;5017870;28;20480;-62
2021/05/15 09:39:36;;;;;;;17.20;16.50;;;19.30;60.70;;;;;;5017927;28;21051;-66
2021/05/15 09:42:04;;;;;;;16.70;15.90;;;19.30;61.20;;;;;;5017973;28;20827;-65
2021/05/15 09:44:34;;;;;;;15.60;14.90;;;19.60;60.90;;;;;;5017898;28;20442;-65
2021/05/15 09:47:01;;;;;;;16.73;16.00;;;20.00;61.50;;;;;;5017840;28;20449;-63
2021/05/15 09:49:29;;;;;;;17.40;16.70;;;20.20;58.90;;;;;;5017631;28;21026;-64
2021/05/15 09:51:58;;;;;;;16.77;16.10;;;20.40;59.10;;;;;;5017940;28;20437;-63
2021/05/15 09:54:29;;;;;;;17.70;16.70;;;21.00;59.00;;;;;;5017829;28;20472;-64
2021/05/15 09:56:57;;;;;;;16.70;16.10;;;21.40;56.30;;;;;;5017602;28;20820;-63
2021/05/15 09:59:27;;;;;;;17.63;16.80;;;21.30;55.40;;;;;;5017643;28;21004;-62
2021/05/15 10:01:57;;;;;;;17.77;17.07;;;20.50;54.60;;;;;;5017742;28;20445;-64
2021/05/15 10:04:24;;;;;;;18.10;17.27;;;20.10;55.80;;;;;;5017646;28;20969;-65
2021/05/15 10:06:51;;;;;;;15.97;15.47;;;20.20;55.70;;;;;;5017493;28;20864;-64
2021/05/15 10:09:32;;;;;;;17.43;16.73;;;19.90;55.30;;;;;;5016053;28;20545;-65
2021/05/15 10:11:59;;;;;;;16.30;15.70;;;19.70;56.80;;;;;;5014730;28;20481;-64
2021/05/15 10:14:26;;;;;;;16.30;15.60;;;19.80;56.70;;;;;;5014693;28;20469;-67
2021/05/15 10:16:53;;;;;;;16.63;16.03;;;19.90;58.90;;;;;;5014799;28;20445;-67
2021/05/15 10:19:20;;;;;;;16.63;15.83;;;19.90;58.10;;;;;;5014531;28;20810;-66
2021/05/15 10:21:46;;;;;;;17.23;16.53;;;19.80;58.70;;;;;;5014384;28;20442;-66
2021/05/15 10:24:21;;;;;;;17.60;16.90;;;19.60;59.20;;;;;;5014127;28;20446;-67
2021/05/15 10:26:57;;;;;;;17.40;16.70;;;19.20;59.10;;;;;;5014059;28;20449;-65
2021/05/15 10:29:35;;;;;;;17.33;16.53;;;18.80;60.00;;;;;;5014960;28;20833;-67
2021/05/15 10:32:01;;;;;;;22.90;21.37;;;18.50;67.90;;;;;;5015280;28;20456;-66
2021/05/15 10:34:31;;;;;;;22.30;21.20;;;17.70;98.70;;;;;;5013808;28;20500;-64
2021/05/15 10:36:58;;;;;;;22.60;21.30;;;16.50;99.90;;;;;;5014117;28;20450;-64
2021/05/15 10:39:29;;;;;;;21.37;20.30;;;15.60;99.90;;;;;;5014003;28;20989;-64
2021/05/15 10:41:57;;;;;;;21.50;20.30;;;15.30;99.90;;;;;;5013984;28;20461;-63
2021/05/15 10:44:23;;;;;;;19.50;18.50;;;14.80;99.90;;;;;;5013209;28;20450;-64
2021/05/15 10:46:51;;;;;;;7.53;6.93;;;14.50;99.90;;;;;;5013784;28;20450;-64
2021/05/15 10:49:20;;;;;;;21.30;19.90;;;14.10;99.90;;;;;;5013691;28;20474;-64
2021/05/15 10:51:49;;;;;;;15.70;15.00;;;13.50;99.90;;;;;;5013745;28;20504;-65
2021/05/15 10:54:17;;;;;;;17.13;16.33;;;13.00;99.90;;;;;;5013076;28;20473;-65
2021/05/15 10:56:48;;;;;;;17.53;16.50;;;12.90;99.90;;;;;;5013205;28;20500;-65
2021/05/15 10:59:19;;;;;;;15.93;15.13;;;13.20;99.90;;;;;;5013599;28;21007;-66
2021/05/15 11:01:52;;;;;;;16.40;15.40;;;13.50;99.90;;;;;;5013773;28;20481;-66
2021/05/15 11:04:23;;;;;;;16.73;15.77;;;13.90;99.90;;;;;;5013948;28;20507;-66
2021/05/15 11:06:58;;;;;;;16.20;15.47;;;14.60;99.90;;;;;;5013293;28;20442;-66
2021/05/15 11:09:25;;;;;;;16.63;15.73;;;15.40;99.90;;;;;;5013445;28;20519;-67
2021/05/15 11:11:51;;;;;;;17.53;16.73;;;16.10;99.90;;;;;;5013551;28;20816;-69
2021/05/15 11:14:29;;;;;;;18.60;17.40;;;16.60;99.90;;;;;;5013365;28;20442;-69
2021/05/15 11:17:16;;;;;;;18.60;17.50;;;17.30;99.90;;;;;;5013411;28;20457;-67
2021/05/15 11:19:53;;;;;;;18.20;17.40;;;17.90;99.90;;;;;;5013447;28;20561;-68
2021/05/15 11:22:21;;;;;;;18.00;17.27;;;18.80;99.90;;;;;;5012058;28;20449;-65
2021/05/15 11:24:53;;;;;;;19.13;18.20;;;19.40;99.90;;;;;;5012927;28;20517;-65
2021/05/15 11:27:21;;;;;;;18.70;18.00;;;20.00;99.90;;;;;;5013013;28;20453;-65
2021/05/15 11:29:50;;;;;;;18.70;17.80;;;20.90;99.90;;;;;;5013095;28;20865;-65
2021/05/15 11:32:17;;;;;;;19.20;18.40;;;21.60;99.90;;;;;;5012987;28;20446;-65
2021/05/15 11:34:44;;;;;;;20.40;19.40;;;22.50;98.20;;;;;;5013122;28;20862;-65
2021/05/15 11:37:14;;;;;;;20.73;19.83;;;23.40;94.20;;;;;;5012769;28;20442;-65
2021/05/15 11:39:41;;;;;;;20.20;19.40;;;23.80;88.30;;;;;;5012846;28;20470;-66
2021/05/15 11:42:10;;;;;;;19.90;19.00;;;22.90;82.70;;;;;;5012777;28;20972;-64
2021/05/15 11:44:38;;;;;;;19.50;18.80;;;22.30;82.00;;;;;;5012608;28;20533;-64
2021/05/15 11:47:08;;;;;;;19.10;18.30;;;23.00;79.40;;;;;;5012120;28;20458;-65
2021/05/15 11:49:34;;;;;;;19.10;18.40;;;24.30;76.40;;;;;;5012571;28;20914;-65
2021/05/15 11:52:03;;;;;;;19.30;18.60;;;24.60;70.50;;;;;;5012816;28;20454;-63
2021/05/15 11:54:30;;;;;;;18.47;17.77;;;24.70;66.30;;;;;;5013059;28;20495;-64
2021/05/15 11:56:57;;;;;;;18.47;17.60;;;25.00;64.00;;;;;;5012528;28;20446;-64
2021/05/15 11:59:24;;;;;;;17.30;16.60;;;24.80;60.70;;;;;;5012518;28;21004;-65
2021/05/15 12:01:51;;;;;;;18.10;17.30;;;25.00;59.90;;;;;;5012210;28;20442;-66
2021/05/15 12:04:24;;;;;;;17.83;17.10;;;24.90;59.20;;;;;;5012507;28;20454;-66
2021/05/15 12:06:54;;;;;;;17.70;17.00;;;25.40;60.00;;;;;;5012345;28;20481;-65
2021/05/15 12:09:21;;;;;;;17.47;16.90;;;26.20;56.60;;;;;;5012314;28;21016;-65
2021/05/15 12:11:48;;;;;;;17.60;16.90;;;26.80;54.60;;;;;;5012204;28;20445;-65
2021/05/15 12:14:18;;;;;;;19.03;18.00;;;27.10;53.00;;;;;;5012401;28;20445;-65
2021/05/15 12:16:44;;;;;;;18.37;17.67;;;26.90;50.50;;;;;;5012071;28;20441;-65
2021/05/15 12:19:20;;;;;;;16.73;16.20;;;27.90;50.00;;;;;;5012149;28;20466;-65
2021/05/15 12:21:57;;;;;;;17.27;16.67;;;28.20;48.20;;;;;;5012265;28;20449;-65
2021/05/15 12:24:30;;;;;;;17.30;16.80;;;28.80;48.50;;;;;;5012073;28;20456;-65
2021/05/15 12:27:06;;;;;;;18.57;17.97;;;29.70;45.60;;;;;;5011958;28;20508;-65
2021/05/15 12:29:32;;;;;;;17.90;17.30;;;30.90;41.80;;;;;;5011842;28;20472;-65